Time;durP1;ratioP1;P1;durP2;ratioP2;P2;SDS_P1;SDS_P2;PMS_P1;PMS_P2;Temp;Humidity;BMP_temperature;BMP_pressure;BME280_temperature;BME280_humidity;BME280_pressure;Samples;Min_cycle;Max_cycle;Signal;HPM_P1;HPM_P2
2024/02/15 00:02:37;;;;;;;5.55;3.03;;;;;;;;;;6176669;28;20140;-79
2024/02/15 00:05:53;;;;;;;4.88;3.03;;;;;;;;;;6161702;28;20049;-81
2024/02/15 00:08:54;;;;;;;5.20;3.08;;;;;;;;;;6169686;28;20096;-80
2024/02/15 00:11:56;;;;;;;5.30;3.42;;;;;;;;;;6200636;28;20419;-80
2024/02/15 00:14:58;;;;;;;6.75;3.13;;;;;;;;;;6200362;28;20460;-82
2024/02/15 00:18:00;;;;;;;6.22;3.53;;;;;;;;;;6194629;28;20129;-80
2024/02/15 00:21:02;;;;;;;4.55;3.00;;;;;;;;;;6199176;28;20042;-81
2024/02/15 00:24:04;;;;;;;6.22;3.22;;;;;;;;;;6217570;28;20599;-79
2024/02/15 00:27:06;;;;;;;5.50;3.10;;;;;;;;;;6200344;28;20088;-79
2024/02/15 00:30:09;;;;;;;4.32;2.90;;;;;;;;;;6214663;28;20045;-80
2024/02/15 00:33:11;;;;;;;4.80;3.38;;;;;;;;;;6203342;28;20053;-80
2024/02/15 00:36:13;;;;;;;6.87;3.23;;;;;;;;;;6197415;28;20455;-79
2024/02/15 00:39:18;;;;;;;6.77;4.10;;;;;;;;;;6207825;28;22487;-78
2024/02/15 00:42:20;;;;;;;5.93;3.90;;;;;;;;;;6204855;28;20089;-81
2024/02/15 00:45:21;;;;;;;7.75;3.75;;;;;;;;;;6194316;28;20399;-80
2024/02/15 00:48:28;;;;;;;6.82;3.60;;;;;;;;;;6187786;28;20068;-79
2024/02/15 00:51:30;;;;;;;6.72;3.65;;;;;;;;;;6210426;28;20057;-80
2024/02/15 00:54:31;;;;;;;7.75;4.13;;;;;;;;;;6210679;28;20050;-79
2024/02/15 00:57:33;;;;;;;6.82;3.65;;;;;;;;;;6204875;28;20140;-79
2024/02/15 01:00:35;;;;;;;7.78;4.40;;;;;;;;;;6203981;28;21528;-78
2024/02/15 01:03:38;;;;;;;6.95;4.05;;;;;;;;;;6202424;28;20432;-81
2024/02/15 01:06:41;;;;;;;;;;;;;;;;;;6209283;28;20049;-79
2024/02/15 01:09:45;;;;;;;7.20;3.42;;;;;;;;;;6210661;28;19928;-81
2024/02/15 01:12:46;;;;;;;;;;;;;;;;;;6212468;28;20041;-81
2024/02/15 01:15:48;;;;;;;10.07;3.60;;;;;;;;;;6202158;28;20403;-79
2024/02/15 01:18:50;;;;;;;6.13;3.72;;;;;;;;;;6221505;28;20049;-79
2024/02/15 01:21:53;;;;;;;8.07;3.80;;;;;;;;;;6209075;28;20076;-80
2024/02/15 01:24:56;;;;;;;7.05;4.00;;;;;;;;;;6202194;28;20810;-79
2024/02/15 01:27:58;;;;;;;9.40;3.72;;;;;;;;;;6206089;28;20467;-78
2024/02/15 01:31:01;;;;;;;5.53;3.50;;;;;;;;;;6202515;28;20042;-81
2024/02/15 01:34:03;;;;;;;8.32;3.65;;;;;;;;;;6203911;28;20042;-80
2024/02/15 01:37:05;;;;;;;6.55;3.70;;;;;;;;;;6207913;28;20084;-81
2024/02/15 01:40:07;;;;;;;6.22;3.97;;;;;;;;;;6188486;28;20080;-80
2024/02/15 01:43:09;;;;;;;9.73;3.40;;;;;;;;;;6211230;28;20042;-79
2024/02/15 01:46:11;;;;;;;6.97;3.45;;;;;;;;;;6204565;28;20746;-80
2024/02/15 01:49:13;;;;;;;4.60;3.50;;;;;;;;;;6207912;28;20538;-81
2024/02/15 01:52:17;;;;;;;7.05;3.80;;;;;;;;;;6204518;28;20038;-79
2024/02/15 01:55:19;;;;;;;8.98;3.65;;;;;;;;;;6210839;28;20046;-80
2024/02/15 01:58:21;;;;;;;6.10;3.70;;;;;;;;;;6203898;28;20037;-80
2024/02/15 02:01:24;;;;;;;9.40;3.63;;;;;;;;;;6206662;28;20107;-81
2024/02/15 02:04:26;;;;;;;8.25;3.50;;;;;;;;;;6203301;28;20125;-82
2024/02/15 02:07:27;;;;;;;8.68;3.85;;;;;;;;;;6217993;28;20053;-82
2024/02/15 02:10:32;;;;;;;8.57;3.85;;;;;;;;;;6205501;28;20046;-82
2024/02/15 02:13:35;;;;;;;9.18;3.88;;;;;;;;;;6207462;28;20053;-79
2024/02/15 02:16:38;;;;;;;5.22;3.80;;;;;;;;;;6199990;28;20598;-81
2024/02/15 02:19:41;;;;;;;6.78;3.97;;;;;;;;;;6216127;28;20041;-82
2024/02/15 02:22:47;;;;;;;5.80;3.75;;;;;;;;;;6207810;28;20048;-82
2024/02/15 02:25:50;;;;;;;6.78;3.78;;;;;;;;;;6208161;28;20041;-79
2024/02/15 02:28:54;;;;;;;6.88;3.30;;;;;;;;;;6197111;28;20042;-80
2024/02/15 02:31:57;;;;;;;5.50;3.63;;;;;;;;;;6200424;28;20046;-81
2024/02/15 02:34:58;;;;;;;5.80;3.80;;;;;;;;;;6206122;28;20056;-80
2024/02/15 02:38:02;;;;;;;9.38;4.13;;;;;;;;;;6205295;28;20057;-81
2024/02/15 02:41:04;;;;;;;7.32;4.57;;;;;;;;;;6205370;28;20042;-79
2024/02/15 02:44:06;;;;;;;8.32;4.20;;;;;;;;;;6197799;28;20628;-80
2024/02/15 02:47:08;;;;;;;7.13;3.95;;;;;;;;;;6200341;28;20464;-81
2024/02/15 02:50:10;;;;;;;7.40;4.45;;;;;;;;;;6209906;28;20056;-78
2024/02/15 02:53:13;;;;;;;8.40;4.13;;;;;;;;;;6208456;28;20781;-80
2024/02/15 02:56:15;;;;;;;;;;;;;;;;;;6206445;28;20057;-81
2024/02/15 02:59:16;;;;;;;6.00;3.80;;;;;;;;;;6201296;28;19921;-81
2024/02/15 03:02:18;;;;;;;7.07;3.70;;;;;;;;;;6196394;28;20038;-82
2024/02/15 03:05:20;;;;;;;8.00;4.40;;;;;;;;;;6200169;28;20049;-81
2024/02/15 03:08:23;;;;;;;;;;;;;;;;;;6201310;28;20046;-81
2024/02/15 03:11:25;;;;;;;10.85;6.90;;;;;;;;;;6203990;28;19922;-79
2024/02/15 03:14:30;;;;;;;7.97;5.60;;;;;;;;;;6192971;28;20065;-81
2024/02/15 03:17:31;;;;;;;8.95;5.40;;;;;;;;;;6198084;28;20046;-79
2024/02/15 03:20:36;;;;;;;9.95;6.43;;;;;;;;;;6206644;28;20056;-81
2024/02/15 03:23:38;;;;;;;11.10;5.05;;;;;;;;;;6199427;28;20185;-81
2024/02/15 03:26:42;;;;;;;11.88;5.47;;;;;;;;;;6221778;28;20055;-80
2024/02/15 03:29:44;;;;;;;11.57;5.28;;;;;;;;;;6201561;28;20069;-79
2024/02/15 03:32:48;;;;;;;9.95;4.93;;;;;;;;;;6217538;28;20068;-81
2024/02/15 03:35:50;;;;;;;11.85;5.30;;;;;;;;;;6191692;28;20689;-81
2024/02/15 03:38:53;;;;;;;13.53;6.10;;;;;;;;;;6206445;28;20065;-79
2024/02/15 03:41:56;;;;;;;12.27;6.13;;;;;;;;;;6206718;28;20096;-81
2024/02/15 03:44:57;;;;;;;9.60;5.80;;;;;;;;;;6206341;28;20050;-81
2024/02/15 03:47:59;;;;;;;11.68;6.28;;;;;;;;;;6202924;28;20527;-82
2024/02/15 03:51:02;;;;;;;11.02;5.60;;;;;;;;;;6193892;28;20045;-80
2024/02/15 03:54:04;;;;;;;9.97;5.50;;;;;;;;;;6204049;28;20073;-82
2024/02/15 03:57:07;;;;;;;8.68;5.43;;;;;;;;;;6205642;28;20995;-78
2024/02/15 04:00:10;;;;;;;10.35;4.95;;;;;;;;;;6202270;28;20488;-81
2024/02/15 04:03:13;;;;;;;10.30;5.07;;;;;;;;;;6191781;28;20125;-81
2024/02/15 04:06:15;;;;;;;11.02;5.40;;;;;;;;;;6210490;28;20053;-79
2024/02/15 04:09:18;;;;;;;10.05;5.47;;;;;;;;;;6221884;28;20036;-79
2024/02/15 04:12:21;;;;;;;9.07;5.20;;;;;;;;;;6198440;28;20052;-80
2024/02/15 04:15:24;;;;;;;9.52;5.57;;;;;;;;;;6206715;28;20046;-83
2024/02/15 04:18:26;;;;;;;11.40;5.33;;;;;;;;;;6198613;28;21961;-81
2024/02/15 04:21:28;;;;;;;7.88;5.30;;;;;;;;;;6206432;28;21072;-80
2024/02/15 04:24:29;;;;;;;9.55;5.43;;;;;;;;;;6207420;28;20050;-80
2024/02/15 04:27:32;;;;;;;14.35;5.80;;;;;;;;;;6207897;28;20518;-81
2024/02/15 04:30:34;;;;;;;9.13;5.55;;;;;;;;;;6202842;28;20123;-82
2024/02/15 04:33:36;;;;;;;10.52;4.95;;;;;;;;;;6198919;28;20542;-80
2024/02/15 04:36:38;;;;;;;8.70;5.03;;;;;;;;;;6195089;28;20053;-79
2024/02/15 04:39:43;;;;;;;8.38;5.25;;;;;;;;;;6196783;28;20507;-79
2024/02/15 04:42:48;;;;;;;8.02;5.53;;;;;;;;;;6186110;28;20050;-81
2024/02/15 04:45:51;;;;;;;13.25;5.53;;;;;;;;;;6218745;28;20045;-81
2024/02/15 04:48:53;;;;;;;12.13;5.32;;;;;;;;;;6220913;28;20049;-80
2024/02/15 04:51:57;;;;;;;12.97;6.47;;;;;;;;;;6196813;28;20052;-80
2024/02/15 04:55:04;;;;;;;13.75;6.53;;;;;;;;;;6210464;28;20046;-81
2024/02/15 04:58:06;;;;;;;11.25;5.97;;;;;;;;;;6210062;28;20508;-77
2024/02/15 05:01:07;;;;;;;10.95;5.93;;;;;;;;;;6202118;28;20050;-82
2024/02/15 05:04:10;;;;;;;12.13;5.47;;;;;;;;;;6201893;28;20050;-81
2024/02/15 05:07:15;;;;;;;10.77;5.70;;;;;;;;;;6208970;28;20052;-82
2024/02/15 05:10:17;;;;;;;9.77;5.82;;;;;;;;;;6207152;28;20049;-79
2024/02/15 05:13:18;;;;;;;12.95;7.03;;;;;;;;;;6210761;28;20050;-83
2024/02/15 05:16:20;;;;;;;13.18;7.97;;;;;;;;;;6200957;28;20049;-82
2024/02/15 05:19:23;;;;;;;11.52;5.97;;;;;;;;;;6207316;28;20220;-80
2024/02/15 05:22:28;;;;;;;14.38;6.60;;;;;;;;;;6197203;28;20053;-80
2024/02/15 05:25:32;;;;;;;10.18;6.35;;;;;;;;;;6205470;28;20136;-81
2024/02/15 05:28:35;;;;;;;9.75;5.72;;;;;;;;;;6209332;28;20046;-81
2024/02/15 05:31:37;;;;;;;10.63;5.40;;;;;;;;;;6203037;28;20042;-80
2024/02/15 05:34:39;;;;;;;8.93;4.93;;;;;;;;;;6208721;28;20459;-81
2024/02/15 05:37:43;;;;;;;9.23;5.05;;;;;;;;;;6201919;28;20572;-82
2024/02/15 05:40:44;;;;;;;13.07;6.20;;;;;;;;;;6210045;28;20050;-81
2024/02/15 05:43:52;;;;;;;11.13;5.65;;;;;;;;;;6212598;28;20435;-82
2024/02/15 05:46:53;;;;;;;11.50;5.80;;;;;;;;;;6204832;28;20050;-82
2024/02/15 05:49:55;;;;;;;8.90;5.53;;;;;;;;;;6206926;28;20056;-81
2024/02/15 05:52:58;;;;;;;14.27;6.65;;;;;;;;;;6202999;28;20046;-82
2024/02/15 05:56:00;;;;;;;13.73;5.90;;;;;;;;;;6206525;28;20526;-81
2024/02/15 05:59:09;;;;;;;9.15;5.15;;;;;;;;;;6204604;28;20054;-80
2024/02/15 06:02:11;;;;;;;9.43;5.28;;;;;;;;;;6203542;28;20046;-82
2024/02/15 06:05:16;;;;;;;10.13;5.30;;;;;;;;;;6192220;28;20062;-81
2024/02/15 06:08:20;;;;;;;10.13;6.13;;;;;;;;;;6220113;28;20056;-80
2024/02/15 06:11:21;;;;;;;10.35;6.30;;;;;;;;;;6211001;28;20053;-82
2024/02/15 06:14:23;;;;;;;10.88;6.05;;;;;;;;;;6202944;28;20038;-79
2024/02/15 06:17:25;;;;;;;10.85;5.07;;;;;;;;;;6206687;28;20057;-81
2024/02/15 06:20:29;;;;;;;11.20;5.53;;;;;;;;;;6202711;28;20042;-83
2024/02/15 06:23:33;;;;;;;7.25;4.70;;;;;;;;;;6203808;28;20050;-80
2024/02/15 06:26:35;;;;;;;11.38;5.00;;;;;;;;;;6189310;28;20627;-82
2024/02/15 06:39:38;;;;;;;10.98;6.40;;;;;;;;;;6220730;28;20065;-80
2024/02/15 06:42:39;;;;;;;17.40;8.80;;;;;;;;;;6205317;28;20080;-82
2024/02/15 06:45:46;;;;;;;14.40;8.07;;;;;;;;;;6197503;28;20050;-84
2024/02/15 06:48:48;;;;;;;13.65;7.53;;;;;;;;;;6189842;28;20039;-84
2024/02/15 06:51:50;;;;;;;32.42;12.45;;;;;;;;;;6220078;28;20053;-83
2024/02/15 06:54:52;;;;;;;75.18;20.20;;;;;;;;;;6205738;28;20050;-80
2024/02/15 06:57:55;;;;;;;31.08;10.50;;;;;;;;;;6202028;28;20506;-84
2024/02/15 07:00:56;;;;;;;23.60;8.05;;;;;;;;;;6199447;28;20047;-84
2024/02/15 07:03:58;;;;;;;44.95;11.93;;;;;;;;;;6211159;28;20084;-83
2024/02/15 07:07:01;;;;;;;42.90;12.18;;;;;;;;;;6207919;28;20041;-84
2024/02/15 07:10:05;;;;;;;15.70;7.22;;;;;;;;;;6208921;28;20061;-82
2024/02/15 07:13:07;;;;;;;;;;;;;;;;;;6201481;28;20085;-84
2024/02/15 07:16:08;;;;;;;20.48;8.38;;;;;;;;;;6205269;28;19929;-84
2024/02/15 07:19:10;;;;;;;18.08;7.75;;;;;;;;;;6218872;28;20042;-81
2024/02/15 07:22:12;;;;;;;16.00;8.25;;;;;;;;;;6221048;28;20049;-83
2024/02/15 07:25:14;;;;;;;13.88;6.38;;;;;;;;;;6211592;28;20116;-82
2024/02/15 07:28:16;;;;;;;16.13;7.10;;;;;;;;;;6219575;28;20179;-82
2024/02/15 07:31:18;;;;;;;12.30;6.53;;;;;;;;;;6185102;28;20056;-83
2024/02/15 07:34:19;;;;;;;14.32;7.20;;;;;;;;;;6197646;28;20093;-82
2024/02/15 07:37:25;;;;;;;17.33;7.85;;;;;;;;;;6203110;28;20145;-83
2024/02/15 07:40:28;;;;;;;14.90;8.05;;;;;;;;;;6221674;28;20409;-83
2024/02/15 07:43:30;;;;;;;16.52;7.22;;;;;;;;;;6206038;28;20050;-83
2024/02/15 07:46:33;;;;;;;17.55;8.38;;;;;;;;;;6198193;28;20058;-83
2024/02/15 07:49:36;;;;;;;10.60;6.95;;;;;;;;;;6202712;28;20499;-82
2024/02/15 07:52:38;;;;;;;10.98;7.05;;;;;;;;;;6207522;28;20054;-83
2024/02/15 07:55:41;;;;;;;18.58;7.15;;;;;;;;;;6204807;28;20064;-81
2024/02/15 07:58:47;;;;;;;15.45;7.00;;;;;;;;;;6203860;28;20261;-84
2024/02/15 08:01:54;;;;;;;25.55;12.82;;;;;;;;;;6216649;28;20064;-83
2024/02/15 08:04:55;;;;;;;13.82;8.20;;;;;;;;;;6201334;28;20053;-84
2024/02/15 08:07:57;;;;;;;13.63;9.23;;;;;;;;;;6209717;28;20046;-84
2024/02/15 08:11:02;;;;;;;13.50;7.20;;;;;;;;;;6205279;28;20045;-84
2024/02/15 08:14:08;;;;;;;15.63;7.65;;;;;;;;;;6192231;28;20042;-83
2024/02/15 08:17:13;;;;;;;12.15;6.93;;;;;;;;;;6216719;28;20046;-84
2024/02/15 08:20:21;;;;;;;10.93;6.22;;;;;;;;;;6199654;28;20424;-83
2024/02/15 08:23:23;;;;;;;12.77;7.05;;;;;;;;;;6209080;28;20116;-81
2024/02/15 08:26:25;;;;;;;15.15;6.93;;;;;;;;;;6206682;28;20058;-83
2024/02/15 08:29:27;;;;;;;12.20;6.07;;;;;;;;;;6187367;28;20052;-81
2024/02/15 08:32:29;;;;;;;18.70;8.85;;;;;;;;;;6197726;28;20050;-84
2024/02/15 08:35:31;;;;;;;17.83;9.20;;;;;;;;;;6220738;28;20054;-83
2024/02/15 08:38:34;;;;;;;;;;;;;;;;;;6224911;28;20054;-83
2024/02/15 08:41:35;;;;;;;12.25;5.65;;;;;;;;;;6203291;28;21086;-83
2024/02/15 08:44:37;;;;;;;13.00;6.82;;;;;;;;;;6199477;28;20053;-84
2024/02/15 08:47:40;;;;;;;12.40;5.65;;;;;;;;;;6204110;28;20116;-84
2024/02/15 08:50:45;;;;;;;8.95;6.22;;;;;;;;;;6206172;28;20056;-84
2024/02/15 08:53:47;;;;;;;11.80;6.35;;;;;;;;;;6217219;28;20092;-82
2024/02/15 08:56:49;;;;;;;10.93;5.60;;;;;;;;;;6243222;28;20057;-81
2024/02/15 08:59:54;;;;;;;13.18;6.47;;;;;;;;;;6210850;28;20090;-82
2024/02/15 09:02:57;;;;;;;11.00;6.03;;;;;;;;;;6206089;28;20671;-84
2024/02/15 09:06:02;;;;;;;13.25;6.22;;;;;;;;;;6214447;28;20046;-82
2024/02/15 09:09:05;;;;;;;10.82;4.60;;;;;;;;;;6230952;28;20107;-82
2024/02/15 09:12:07;;;;;;;7.57;4.13;;;;;;;;;;6214704;28;20038;-85
2024/02/15 09:15:12;;;;;;;7.75;3.50;;;;;;;;;;6211400;28;20101;-85
2024/02/15 09:18:14;;;;;;;6.75;3.47;;;;;;;;;;6217041;28;20046;-84
2024/02/15 09:21:16;;;;;;;7.38;3.80;;;;;;;;;;6216237;28;20045;-82
2024/02/15 09:24:19;;;;;;;6.65;3.67;;;;;;;;;;6211304;28;20493;-81
2024/02/15 09:27:21;;;;;;;;;;;;;;;;;;6210739;28;20069;-82
2024/02/15 09:30:24;;;;;;;9.32;3.60;;;;;;;;;;6222824;28;19928;-84
2024/02/15 09:33:27;;;;;;;10.00;6.45;;;;;;;;;;6211206;28;20081;-84
2024/02/15 09:36:34;;;;;;;5.85;3.03;;;;;;;;;;6209454;28;20503;-83
2024/02/15 09:39:37;;;;;;;8.23;2.78;;;;;;;;;;6216659;28;20050;-83
2024/02/15 09:42:39;;;;;;;8.02;4.35;;;;;;;;;;6222248;28;20053;-83
2024/02/15 09:45:42;;;;;;;7.68;3.10;;;;;;;;;;6215157;28;20487;-83
2024/02/15 09:48:50;;;;;;;8.43;2.75;;;;;;;;;;6205349;28;20050;-84
2024/02/15 09:51:53;;;;;;;5.00;2.72;;;;;;;;;;6223153;28;20034;-83
2024/02/15 09:54:55;;;;;;;7.35;2.60;;;;;;;;;;6204731;28;20042;-83
2024/02/15 09:57:58;;;;;;;4.50;2.00;;;;;;;;;;6219320;28;20276;-82
2024/02/15 10:01:09;;;;;;;5.75;2.60;;;;;;;;;;6205052;28;20512;-83
2024/02/15 10:04:15;;;;;;;3.88;2.40;;;;;;;;;;6207516;28;20056;-84
2024/02/15 10:07:18;;;;;;;8.80;2.95;;;;;;;;;;6227089;28;20050;-82
2024/02/15 10:10:25;;;;;;;5.72;2.40;;;;;;;;;;6203364;28;20049;-83
2024/02/15 10:13:27;;;;;;;4.80;2.42;;;;;;;;;;6207098;28;20579;-83
2024/02/15 10:16:34;;;;;;;5.57;2.83;;;;;;;;;;6202522;28;20440;-82
2024/02/15 10:19:39;;;;;;;5.38;2.80;;;;;;;;;;6216693;28;20058;-83
2024/02/15 10:22:41;;;;;;;4.57;2.53;;;;;;;;;;6210176;28;20082;-83
2024/02/15 10:25:44;;;;;;;6.47;3.08;;;;;;;;;;6222941;28;20049;-84
2024/02/15 10:28:47;;;;;;;5.50;2.70;;;;;;;;;;6202550;28;20034;-81
2024/02/15 10:31:56;;;;;;;4.15;1.98;;;;;;;;;;6182919;28;20070;-82
2024/02/15 10:34:58;;;;;;;4.15;1.90;;;;;;;;;;6222450;28;20046;-81
2024/02/15 10:38:10;;;;;;;2.85;1.80;;;;;;;;;;6206529;28;20052;-83
2024/02/15 10:41:12;;;;;;;6.38;2.00;;;;;;;;;;6222555;28;20072;-82
2024/02/15 10:44:25;;;;;;;3.63;2.15;;;;;;;;;;6201084;28;20050;-85
2024/02/15 10:47:28;;;;;;;4.53;2.15;;;;;;;;;;6202428;28;20510;-85
2024/02/15 10:50:29;;;;;;;4.78;2.70;;;;;;;;;;6204831;28;20053;-84
2024/02/15 10:53:33;;;;;;;4.43;2.25;;;;;;;;;;6207210;28;20058;-85
2024/02/15 10:56:40;;;;;;;4.85;2.20;;;;;;;;;;6207694;28;20042;-83
2024/02/15 10:59:54;;;;;;;5.40;2.03;;;;;;;;;;6207406;28;20080;-83
2024/02/15 11:03:04;;;;;;;4.35;1.98;;;;;;;;;;6204241;28;20038;-83
2024/02/15 11:06:08;;;;;;;2.75;1.90;;;;;;;;;;6206120;28;20071;-85
2024/02/15 11:09:11;;;;;;;2.63;2.10;;;;;;;;;;6207334;28;20180;-84
2024/02/15 11:12:15;;;;;;;4.28;2.13;;;;;;;;;;6208017;28;20050;-83
2024/02/15 11:15:39;;;;;;;4.18;2.05;;;;;;;;;;6199261;28;20108;-83
2024/02/15 11:18:48;;;;;;;4.10;2.00;;;;;;;;;;6205906;28;20526;-82
2024/02/15 11:21:56;;;;;;;2.28;1.73;;;;;;;;;;6202242;28;20049;-80
2024/02/15 11:24:59;;;;;;;3.78;1.90;;;;;;;;;;6206069;28;20045;-79
2024/02/15 11:28:23;;;;;;;3.05;1.98;;;;;;;;;;6194918;28;20703;-83
2024/02/15 11:31:54;;;;;;;5.20;2.42;;;;;;;;;;6201893;28;20042;-82
2024/02/15 11:35:24;;;;;;;2.92;1.80;;;;;;;;;;6198222;28;20042;-81
2024/02/15 11:38:29;;;;;;;4.40;1.60;;;;;;;;;;6206014;28;20874;-82
2024/02/15 11:41:31;;;;;;;2.45;1.70;;;;;;;;;;6221532;28;20042;-83
2024/02/15 11:44:33;;;;;;;9.23;4.40;;;;;;;;;;6185329;28;20058;-82
2024/02/15 11:47:42;;;;;;;12.70;5.25;;;;;;;;;;6197612;28;20100;-82
2024/02/15 11:50:44;;;;;;;15.02;5.88;;;;;;;;;;6205114;28;20420;-82
2024/02/15 11:53:59;;;;;;;6.63;2.60;;;;;;;;;;6219893;28;20050;-84
2024/02/15 11:57:13;;;;;;;8.63;3.03;;;;;;;;;;6204971;28;20050;-82
2024/02/15 12:20:34;;;;;;;10.02;3.67;;;;;;;;;;6203766;28;20100;-82
2024/02/15 12:23:41;;;;;;;;;;;;;;;;;;6202614;28;20697;-83
2024/02/15 12:26:43;;;;;;;5.57;2.90;;;;;;;;;;6206597;28;19933;-84
2024/02/15 12:29:47;;;;;;;5.25;1.92;;;;;;;;;;6203446;28;20049;-83
2024/02/15 12:32:50;;;;;;;5.35;2.20;;;;;;;;;;6203416;28;20505;-83
2024/02/15 12:36:03;;;;;;;;;;;;;;;;;;6203771;28;20042;-83
2024/02/15 12:39:16;;;;;;;5.22;2.10;;;;;;;;;;6227268;28;19948;-83
2024/02/15 12:42:20;;;;;;;;;;;;;;;;;;6206696;28;20054;-82
2024/02/15 12:45:24;;;;;;;12.20;5.03;;;;;;;;;;6212242;28;19929;-83
2024/02/15 12:48:26;;;;;;;6.53;2.90;;;;;;;;;;6209687;28;20049;-83
2024/02/15 12:51:31;;;;;;;11.18;3.97;;;;;;;;;;6209159;28;20042;-83
2024/02/15 12:54:39;;;;;;;5.30;2.55;;;;;;;;;;6210334;28;20057;-83
2024/02/15 12:57:44;;;;;;;5.82;2.63;;;;;;;;;;6207061;28;20127;-82
2024/02/15 13:00:46;;;;;;;4.45;2.03;;;;;;;;;;6205613;28;20038;-84
2024/02/15 13:03:49;;;;;;;6.18;2.30;;;;;;;;;;6211695;28;20049;-84
2024/02/15 13:06:51;;;;;;;12.57;4.82;;;;;;;;;;6209008;28;20052;-83
2024/02/15 13:09:53;;;;;;;13.95;5.85;;;;;;;;;;6210131;28;20132;-84
2024/02/15 13:12:55;;;;;;;4.30;2.28;;;;;;;;;;6207459;28;20386;-83
2024/02/15 13:15:57;;;;;;;;;;;;;;;;;;6210350;28;20733;-83
2024/02/15 13:19:00;;;;;;;7.50;3.65;;;;;;;;;;6205411;28;19999;-85
2024/02/15 13:22:01;;;;;;;6.90;5.67;;;;;;;;;;6214747;28;20052;-83
2024/02/15 13:25:04;;;;;;;4.57;2.00;;;;;;;;;;6213861;28;20441;-82
2024/02/15 13:28:06;;;;;;;7.00;2.47;;;;;;;;;;6209811;28;20056;-83
2024/02/15 13:31:07;;;;;;;4.23;2.43;;;;;;;;;;6211445;28;20050;-84
2024/02/15 13:34:11;;;;;;;5.72;2.05;;;;;;;;;;6206876;28;20046;-84
2024/02/15 13:37:13;;;;;;;5.88;2.50;;;;;;;;;;6207959;28;20046;-83
2024/02/15 13:40:15;;;;;;;2.40;1.48;;;;;;;;;;6214976;28;20041;-82
2024/02/15 13:43:17;;;;;;;1.23;1.13;;;;;;;;;;6210170;28;20046;-81
2024/02/15 13:46:20;;;;;;;5.10;1.70;;;;;;;;;;6210718;28;20057;-83
2024/02/15 13:49:22;;;;;;;2.95;1.55;;;;;;;;;;6210356;28;20060;-84
2024/02/15 13:52:34;;;;;;;3.20;1.42;;;;;;;;;;6194005;28;20054;-83
2024/02/15 13:55:37;;;;;;;5.40;2.47;;;;;;;;;;6208305;28;20054;-82
2024/02/15 13:58:38;;;;;;;2.38;1.60;;;;;;;;;;6204011;28;20045;-82
2024/02/15 14:01:45;;;;;;;3.72;2.40;;;;;;;;;;6200505;28;20046;-84
2024/02/15 14:04:47;;;;;;;4.68;1.73;;;;;;;;;;6222263;28;20050;-84
2024/02/15 14:07:55;;;;;;;3.03;1.37;;;;;;;;;;6210616;28;20140;-84
2024/02/15 14:10:56;;;;;;;3.80;1.42;;;;;;;;;;6207867;28;20065;-83
2024/02/15 14:13:59;;;;;;;6.40;3.90;;;;;;;;;;6205555;28;20535;-82
2024/02/15 14:17:00;;;;;;;4.60;1.43;;;;;;;;;;6207661;28;20049;-82
2024/02/15 14:20:07;;;;;;;2.38;1.50;;;;;;;;;;6219605;28;20446;-83
2024/02/15 14:23:13;;;;;;;2.92;1.55;;;;;;;;;;6207504;28;20050;-82
2024/02/15 14:26:16;;;;;;;2.25;1.20;;;;;;;;;;6191887;28;20124;-83
2024/02/15 14:29:22;;;;;;;1.58;1.10;;;;;;;;;;6214475;28;20504;-83
2024/02/15 14:35:45;;;;;;;4.70;1.20;;;;;;;;;;6212094;28;20213;-84
2024/02/15 14:38:47;;;;;;;1.98;1.13;;;;;;;;;;6193253;28;20042;-83
2024/02/15 14:41:48;;;;;;;3.35;1.60;;;;;;;;;;6221529;28;20050;-84
2024/02/15 14:44:51;;;;;;;3.90;1.23;;;;;;;;;;6205333;28;20045;-84
2024/02/15 14:47:53;;;;;;;3.22;1.30;;;;;;;;;;6222712;28;20111;-83
2024/02/15 14:50:55;;;;;;;2.92;1.17;;;;;;;;;;6215191;28;20045;-81
2024/02/15 14:53:58;;;;;;;3.13;1.38;;;;;;;;;;6224479;28;20896;-83
2024/02/15 14:57:01;;;;;;;1.73;1.23;;;;;;;;;;6198209;28;20126;-84
2024/02/15 15:00:10;;;;;;;3.60;1.60;;;;;;;;;;6221258;28;20045;-83
2024/02/15 15:03:13;;;;;;;2.80;1.10;;;;;;;;;;6200191;28;20046;-82
2024/02/15 15:12:56;;;;;;;2.60;1.17;;;;;;;;;;6198885;28;20042;-83
2024/02/15 15:15:58;;;;;;;5.03;1.20;;;;;;;;;;6195130;28;20050;-84
2024/02/15 15:19:01;;;;;;;;;;;;;;;;;;6211233;28;20435;-85
2024/02/15 15:22:04;;;;;;;5.47;1.30;;;;;;;;;;6200230;28;19987;-85
2024/02/15 15:25:09;;;;;;;7.63;1.67;;;;;;;;;;6201352;28;20121;-85
2024/02/15 15:28:11;;;;;;;2.47;1.00;;;;;;;;;;6199101;28;20043;-84
2024/02/15 15:31:13;;;;;;;2.58;1.20;;;;;;;;;;6202311;28;20124;-84
2024/02/15 15:34:16;;;;;;;2.45;1.27;;;;;;;;;;6196236;28;20534;-85
2024/02/15 15:37:22;;;;;;;12.25;1.63;;;;;;;;;;6189993;28;20524;-84
2024/02/15 15:40:24;;;;;;;4.68;1.60;;;;;;;;;;6193219;28;20045;-83
2024/02/15 15:43:26;;;;;;;2.67;1.60;;;;;;;;;;6197002;28;20068;-83
2024/02/15 15:46:27;;;;;;;3.55;1.10;;;;;;;;;;6196379;28;20042;-84
2024/02/15 15:49:31;;;;;;;4.05;1.65;;;;;;;;;;6206947;28;20049;-83
2024/02/15 15:52:33;;;;;;;6.30;1.98;;;;;;;;;;6197942;28;20057;-84
2024/02/15 15:55:35;;;;;;;3.15;1.40;;;;;;;;;;6193722;28;20049;-85
2024/02/15 15:58:37;;;;;;;3.53;1.33;;;;;;;;;;6195718;28;20072;-84
2024/02/15 16:01:47;;;;;;;3.17;1.65;;;;;;;;;;6208020;28;20544;-85
2024/02/15 16:04:49;;;;;;;2.80;1.60;;;;;;;;;;6205735;28;20063;-83
2024/02/15 16:07:56;;;;;;;3.95;1.45;;;;;;;;;;6202306;28;20662;-85
2024/02/15 16:10:57;;;;;;;16.35;7.15;;;;;;;;;;6210416;28;20060;-83
2024/02/15 16:14:00;;;;;;;18.75;6.15;;;;;;;;;;6205186;28;20386;-84
2024/02/15 16:17:01;;;;;;;15.63;5.28;;;;;;;;;;6215460;28;20050;-82
2024/02/15 16:20:04;;;;;;;23.58;5.97;;;;;;;;;;6197439;28;20068;-83
2024/02/15 16:23:06;;;;;;;25.95;8.45;;;;;;;;;;6205177;28;20077;-85
2024/02/15 16:26:08;;;;;;;8.20;3.40;;;;;;;;;;6212345;28;20108;-83
2024/02/15 16:29:10;;;;;;;5.72;2.10;;;;;;;;;;6203211;28;20054;-81
2024/02/15 16:32:11;;;;;;;10.02;4.28;;;;;;;;;;6204585;28;20061;-85
2024/02/15 16:35:14;;;;;;;6.15;1.83;;;;;;;;;;6215004;28;20050;-84
2024/02/15 16:38:16;;;;;;;14.77;3.72;;;;;;;;;;6215134;28;20038;-83
2024/02/15 16:41:19;;;;;;;9.95;2.78;;;;;;;;;;6223219;28;20041;-79
2024/02/15 16:44:21;;;;;;;7.10;2.38;;;;;;;;;;6233711;28;20033;-82
2024/02/15 16:47:23;;;;;;;2.95;1.85;;;;;;;;;;6228671;28;20065;-81
2024/02/15 16:50:24;;;;;;;4.05;1.80;;;;;;;;;;6246747;28;20521;-82
2024/02/15 16:53:26;;;;;;;3.77;1.50;;;;;;;;;;6206044;28;20228;-82
2024/02/15 16:56:30;;;;;;;5.15;1.80;;;;;;;;;;6219573;28;20932;-84
2024/02/15 16:59:33;;;;;;;6.07;2.97;;;;;;;;;;6199546;28;20052;-84
2024/02/15 17:02:38;;;;;;;5.15;3.30;;;;;;;;;;6210548;28;20049;-84
2024/02/15 17:05:41;;;;;;;5.90;2.45;;;;;;;;;;6189985;28;20060;-84
2024/02/15 17:08:44;;;;;;;10.20;6.18;;;;;;;;;;6211015;28;20076;-84
2024/02/15 17:11:46;;;;;;;17.58;9.95;;;;;;;;;;6203558;28;20038;-85
2024/02/15 17:14:49;;;;;;;13.75;6.70;;;;;;;;;;6200797;28;20054;-84
2024/02/15 17:17:54;;;;;;;19.08;10.45;;;;;;;;;;6200758;28;20046;-84
2024/02/15 17:20:56;;;;;;;14.75;8.30;;;;;;;;;;6204111;28;20062;-83
2024/02/15 17:23:59;;;;;;;17.67;10.63;;;;;;;;;;6223946;28;20099;-84
2024/02/15 17:27:01;;;;;;;20.20;12.07;;;;;;;;;;6220577;28;20109;-82
2024/02/15 17:30:03;;;;;;;7.75;4.65;;;;;;;;;;6205702;28;20138;-83
2024/02/15 17:33:07;;;;;;;6.10;2.28;;;;;;;;;;6205478;28;20046;-80
2024/02/15 17:36:09;;;;;;;8.38;3.15;;;;;;;;;;6209355;28;20128;-80
2024/02/15 17:39:14;;;;;;;5.72;3.10;;;;;;;;;;6199916;28;20457;-81
2024/02/15 17:42:16;;;;;;;4.97;2.60;;;;;;;;;;6204352;28;20062;-83
2024/02/15 17:45:18;;;;;;;6.68;3.47;;;;;;;;;;6200301;28;20660;-81
2024/02/15 17:48:20;;;;;;;13.43;7.30;;;;;;;;;;6202723;28;20057;-81
2024/02/15 17:51:22;;;;;;;18.77;10.90;;;;;;;;;;6204267;28;20045;-83
2024/02/15 17:54:24;;;;;;;16.58;9.48;;;;;;;;;;6208029;28;20052;-82
2024/02/15 17:57:26;;;;;;;16.73;9.52;;;;;;;;;;6192945;28;20042;-81
2024/02/15 18:00:30;;;;;;;6.65;3.85;;;;;;;;;;6223321;28;20046;-84
2024/02/15 18:03:38;;;;;;;5.68;2.63;;;;;;;;;;6224077;28;20199;-84
2024/02/15 18:06:40;;;;;;;3.65;2.88;;;;;;;;;;6209748;28;20103;-83
2024/02/15 18:09:41;;;;;;;4.72;2.83;;;;;;;;;;6223200;28;20522;-81
2024/02/15 18:12:43;;;;;;;10.27;4.75;;;;;;;;;;6196868;28;20046;-83
2024/02/15 18:15:45;;;;;;;5.32;2.70;;;;;;;;;;6200140;28;20045;-82
2024/02/15 18:18:52;;;;;;;5.47;3.25;;;;;;;;;;6208612;28;20094;-80
2024/02/15 18:21:55;;;;;;;6.40;5.35;;;;;;;;;;6224125;28;20053;-83
2024/02/15 18:24:56;;;;;;;6.68;3.17;;;;;;;;;;6211240;28;20041;-81
2024/02/15 18:28:00;;;;;;;10.40;5.80;;;;;;;;;;6205314;28;20432;-82
2024/02/15 18:31:02;;;;;;;7.88;5.10;;;;;;;;;;6204297;28;20042;-83
2024/02/15 18:34:06;;;;;;;21.98;14.52;;;;;;;;;;6210953;28;20522;-82
2024/02/15 18:37:08;;;;;;;28.60;15.55;;;;;;;;;;6200891;28;20054;-83
2024/02/15 18:40:11;;;;;;;9.13;5.72;;;;;;;;;;6204287;28;20043;-82
2024/02/15 18:43:25;;;;;;;9.25;4.20;;;;;;;;;;6206022;28;20065;-81
2024/02/15 18:46:27;;;;;;;5.72;4.13;;;;;;;;;;6217937;28;20042;-80
2024/02/15 18:49:29;;;;;;;6.73;3.70;;;;;;;;;;6213594;28;20046;-81
2024/02/15 18:52:37;;;;;;;7.65;5.07;;;;;;;;;;6201971;28;20065;-80
2024/02/15 18:55:39;;;;;;;12.02;6.80;;;;;;;;;;6218133;28;20058;-83
2024/02/15 18:58:40;;;;;;;7.15;3.97;;;;;;;;;;6214262;28;20057;-82